createdAt,value
2023-02-05T00:01:49.910Z,103242.06
2023-02-05T00:04:19.530Z,103246.50
2023-02-05T00:06:47.560Z,103248.31
2023-02-05T00:09:15.583Z,103237.66
2023-02-05T00:11:43.601Z,103238.56
2023-02-05T00:14:11.778Z,103226.09
2023-02-05T00:16:39.964Z,103219.91
2023-02-05T00:19:07.987Z,103218.13
2023-02-05T00:21:37.384Z,103222.56
2023-02-05T00:24:05.742Z,103214.66
2023-02-05T00:26:33.983Z,103210.22
2023-02-05T00:29:01.973Z,103208.50
2023-02-05T00:31:30.009Z,103218.28
2023-02-05T00:33:58.850Z,103212.97
2023-02-05T00:36:27.447Z,103207.69
2023-02-05T00:38:57.101Z,103204.13
2023-02-05T00:41:25.091Z,103196.16
2023-02-05T00:43:53.185Z,103189.94
2023-02-05T00:46:21.227Z,103183.63
2023-02-05T00:48:49.223Z,103182.78
2023-02-05T00:51:17.251Z,103180.97
2023-02-05T00:53:45.244Z,103178.34
2023-02-05T00:56:14.771Z,103179.22
2023-02-05T00:58:47.414Z,103174.81
2023-02-05T01:01:15.895Z,103171.25
2023-02-05T01:03:44.004Z,103170.34
2023-02-05T01:06:12.119Z,103161.44
2023-02-05T01:08:40.122Z,103153.44
2023-02-05T01:11:10.279Z,103153.47
2023-02-05T01:13:39.901Z,103146.31
2023-02-05T01:16:08.232Z,103142.75
2023-02-05T01:18:36.226Z,103142.72
2023-02-05T01:21:04.338Z,103140.94
2023-02-05T01:23:32.377Z,103140.94
2023-02-05T01:26:00.516Z,103144.47
2023-02-05T01:28:28.582Z,103130.22
2023-02-05T01:30:57.940Z,103130.25
2023-02-05T01:33:25.934Z,103123.09
2023-02-05T01:35:53.892Z,103112.44
2023-02-05T01:38:21.955Z,103112.50
2023-02-05T01:40:49.974Z,103111.63
2023-02-05T01:43:19.865Z,103108.00
2023-02-05T01:46:15.829Z,103108.00
2023-02-05T01:48:47.633Z,103101.81
2023-02-05T01:51:17.694Z,103093.78
2023-02-05T01:53:48.998Z,103084.88
2023-02-05T01:56:21.195Z,103083.91
2023-02-05T01:58:54.754Z,103089.19
2023-02-05T02:01:25.369Z,103090.03
2023-02-05T02:03:56.337Z,103083.78
2023-02-05T02:06:24.380Z,103076.63
2023-02-05T02:08:52.847Z,103073.97
2023-02-05T02:11:22.870Z,103065.88
2023-02-05T02:13:54.480Z,103074.78
2023-02-05T02:16:24.682Z,103068.56
2023-02-05T02:18:54.347Z,103064.97
2023-02-05T02:21:46.082Z,103064.97
2023-02-05T02:24:26.889Z,103053.44
2023-02-05T02:27:08.018Z,103048.94
2023-02-05T02:29:42.900Z,103051.59
2023-02-05T02:32:17.609Z,103058.69
2023-02-05T02:34:50.249Z,103045.34
2023-02-05T02:37:26.486Z,103038.16
2023-02-05T02:40:00.152Z,103036.31
2023-02-05T02:42:34.974Z,103036.31
2023-02-05T02:45:08.365Z,103043.38
2023-02-05T02:47:39.386Z,103036.16
2023-02-05T02:50:13.166Z,103021.84
2023-02-05T02:52:45.552Z,103024.47
2023-02-05T02:55:16.901Z,103020.00
2023-02-05T02:57:50.139Z,103012.03
2023-02-05T03:00:25.673Z,103018.19
2023-02-05T03:02:58.685Z,103009.34
2023-02-05T03:05:30.132Z,103007.63
2023-02-05T03:08:03.018Z,102978.78
2023-02-05T03:10:37.462Z,102993.38
2023-02-05T03:13:06.094Z,103002.31
2023-02-05T03:15:35.827Z,103004.06
2023-02-05T03:18:04.099Z,103006.75
2023-02-05T03:20:36.031Z,103007.56
2023-02-05T03:23:04.128Z,103007.56
2023-02-05T03:25:32.354Z,102996.25
2023-02-05T03:28:02.430Z,103002.97
2023-02-05T03:30:44.054Z,103003.72
2023-02-05T03:33:24.048Z,103005.56
2023-02-05T03:36:01.254Z,102997.56
2023-02-05T03:38:45.018Z,102986.06
2023-02-05T03:41:20.836Z,103002.75
2023-02-05T03:43:58.041Z,102990.25
2023-02-05T03:46:35.732Z,102995.56
2023-02-05T03:49:13.803Z,102996.47
2023-02-05T03:51:49.637Z,102984.88
2023-02-05T03:54:27.678Z,102986.69
2023-02-05T03:57:02.024Z,102976.94
2023-02-05T03:59:34.872Z,102984.97
2023-02-05T04:02:05.102Z,102975.16
2023-02-05T04:04:38.168Z,102974.31
2023-02-05T04:07:08.490Z,102977.81
2023-02-05T04:09:37.656Z,102992.03
2023-02-05T04:12:06.047Z,102976.97
2023-02-05T04:14:35.614Z,102982.28
2023-02-05T04:17:05.364Z,102971.53
2023-02-05T04:19:33.522Z,102972.41
2023-02-05T04:22:02.528Z,102965.25
2023-02-05T04:24:34.397Z,102962.59
2023-02-05T04:27:02.466Z,102951.81
2023-02-05T04:29:30.659Z,102945.56
2023-02-05T04:31:59.598Z,102949.94
2023-02-05T04:34:29.302Z,102940.13
2023-02-05T04:36:58.062Z,102938.34
2023-02-05T04:39:28.686Z,102943.63
2023-02-05T04:41:56.638Z,102942.69
2023-02-05T04:44:24.730Z,102929.41
2023-02-05T04:46:52.690Z,102921.28
2023-02-05T04:49:20.851Z,102918.63
2023-02-05T04:51:50.228Z,102922.09
2023-02-05T04:54:18.122Z,102924.78
2023-02-05T04:56:46.941Z,102923.06
2023-02-05T04:59:14.935Z,102930.13
2023-02-05T05:01:42.899Z,102925.63
2023-02-05T05:04:10.871Z,102920.28
2023-02-05T05:06:38.892Z,102924.66
2023-02-05T05:09:08.232Z,102921.97
2023-02-05T05:11:36.227Z,102918.41
2023-02-05T05:14:04.161Z,102911.19
2023-02-05T05:16:32.203Z,102903.09
2023-02-05T05:19:00.182Z,102909.31
2023-02-05T05:21:28.168Z,102905.75
2023-02-05T05:23:56.135Z,102902.16
2023-02-05T05:26:25.438Z,102897.63
2023-02-05T05:28:55.259Z,102902.09
2023-02-05T05:31:24.755Z,102895.81
2023-02-05T05:33:52.795Z,102899.38
2023-02-05T05:36:21.051Z,102898.44
2023-02-05T05:38:49.051Z,102896.63
2023-02-05T05:41:38.982Z,102900.19
2023-02-05T05:44:08.542Z,102892.22
2023-02-05T05:46:37.610Z,102885.22
2023-02-05T05:49:05.628Z,102893.03
2023-02-05T05:51:33.919Z,102885.94
2023-02-05T05:54:01.817Z,102884.09
2023-02-05T05:56:29.779Z,102879.69
2023-02-05T05:58:57.774Z,102884.09
2023-02-05T06:01:27.070Z,102876.06
2023-02-05T06:03:55.122Z,102878.78
2023-02-05T06:06:23.241Z,102883.22
2023-02-05T06:08:51.249Z,102884.94
2023-02-05T06:11:19.241Z,102891.13
2023-02-05T06:13:47.199Z,102891.97
2023-02-05T06:16:15.182Z,102883.94
2023-02-05T06:18:44.523Z,102881.28
2023-02-05T06:21:12.491Z,102883.03
2023-02-05T06:23:40.527Z,102873.22
2023-02-05T06:26:08.458Z,102879.44
2023-02-05T06:28:36.542Z,102877.56
2023-02-05T06:31:04.745Z,102877.56
2023-02-05T06:33:32.823Z,102872.22
2023-02-05T06:36:02.188Z,102881.06
2023-02-05T06:38:30.265Z,102881.94
2023-02-05T06:40:58.261Z,102885.50
2023-02-05T06:43:26.313Z,102881.84
2023-02-05T06:45:55.740Z,102887.22
2023-02-05T06:48:23.691Z,102889.00
2023-02-05T06:50:51.689Z,102894.31
2023-02-05T06:53:21.098Z,102882.75
2023-02-05T06:55:49.176Z,102890.84
2023-02-05T06:58:17.162Z,102894.38
2023-02-05T07:00:45.236Z,102894.38
2023-02-05T07:03:13.254Z,102898.88
2023-02-05T07:05:41.405Z,102894.31
2023-02-05T07:08:09.368Z,102896.13
2023-02-05T07:10:38.877Z,102896.06
2023-02-05T07:13:06.922Z,102891.66
2023-02-05T07:15:37.444Z,102894.25
2023-02-05T07:18:06.056Z,102892.53
2023-02-05T07:20:34.198Z,102891.56
2023-02-05T07:23:02.142Z,102895.22
2023-02-05T07:25:36.255Z,102910.38
2023-02-05T07:28:07.008Z,102906.75
2023-02-05T07:30:35.478Z,102910.38
2023-02-05T07:33:04.740Z,102901.53
2023-02-05T07:35:35.352Z,102906.72
2023-02-05T07:38:03.618Z,102893.34
2023-02-05T07:40:31.472Z,102896.81
2023-02-05T07:42:59.562Z,102885.22
2023-02-05T07:45:28.843Z,102890.66
2023-02-05T07:47:56.801Z,102895.81
2023-02-05T07:50:24.843Z,102902.94
2023-02-05T07:52:52.849Z,102904.75
2023-02-05T07:55:20.821Z,102907.34
2023-02-05T07:57:48.752Z,102906.41
2023-02-05T08:00:16.874Z,102896.94
2023-02-05T08:02:46.210Z,102910.84
2023-02-05T08:05:14.182Z,102912.69
2023-02-05T08:07:42.180Z,102910.03
2023-02-05T08:10:12.188Z,102903.75
2023-02-05T08:12:40.108Z,102912.66
2023-02-05T08:15:08.916Z,102899.28
2023-02-05T08:17:36.811Z,102903.75
2023-02-05T08:20:08.024Z,102906.41
2023-02-05T08:22:37.470Z,102876.75
2023-02-05T08:25:07.069Z,102904.66
2023-02-05T08:27:36.402Z,102918.94
2023-02-05T08:30:04.666Z,102919.81
2023-02-05T08:32:32.731Z,102912.66
2023-02-05T08:35:00.713Z,102915.34
2023-02-05T08:37:30.152Z,102924.16
2023-02-05T08:39:58.074Z,102917.13
2023-02-05T08:42:26.003Z,102918.88
2023-02-05T08:44:56.095Z,102929.53
2023-02-05T08:47:24.142Z,102924.25
2023-02-05T08:49:52.124Z,102925.06
2023-02-05T08:52:20.327Z,102920.50
2023-02-05T08:54:49.842Z,102916.94
2023-02-05T08:57:17.788Z,102913.38
2023-02-05T08:59:45.786Z,102909.91
2023-02-05T09:02:16.024Z,102908.88
2023-02-05T09:04:44.368Z,102910.66
2023-02-05T09:07:12.369Z,102899.97
2023-02-05T09:09:40.388Z,102903.53
2023-02-05T09:12:10.698Z,102890.28
2023-02-05T09:14:39.252Z,102897.16
2023-02-05T09:17:08.372Z,102906.13
2023-02-05T09:19:37.414Z,102893.53
2023-02-05T09:22:05.490Z,102881.97
2023-02-05T09:24:33.956Z,102870.31
2023-02-05T09:27:02.148Z,102864.09
2023-02-05T09:29:31.867Z,102859.56
2023-02-05T09:32:00.150Z,102857.78
2023-02-05T09:34:28.165Z,102859.53
2023-02-05T09:36:56.134Z,102851.50
2023-02-05T09:39:52.620Z,102848.81
2023-02-05T09:42:21.595Z,102852.38
2023-02-05T09:45:03.877Z,102852.31
2023-02-05T09:47:37.660Z,102843.38
2023-02-05T09:50:14.232Z,102845.06
2023-02-05T09:52:45.953Z,102841.47
2023-02-05T09:55:20.842Z,102834.31
2023-02-05T09:57:49.169Z,102834.25
2023-02-05T10:00:25.736Z,102824.34
2023-02-05T10:03:02.839Z,102824.34
2023-02-05T10:05:39.202Z,102822.50
2023-02-05T10:08:14.435Z,102817.13
2023-02-05T10:10:47.004Z,102818.75
2023-02-05T10:13:36.634Z,102808.97
2023-02-05T10:16:20.069Z,102812.38
2023-02-05T10:19:02.618Z,102819.50
2023-02-05T10:21:42.910Z,102817.75
2023-02-05T10:24:40.379Z,102815.00
2023-02-05T10:27:17.891Z,102809.66
2023-02-05T10:29:57.076Z,102809.59
2023-02-05T10:32:38.330Z,102809.50
2023-02-05T10:35:22.178Z,102805.09
2023-02-05T10:37:53.929Z,102809.50
2023-02-05T10:40:25.050Z,102800.53
2023-02-05T10:42:56.968Z,102805.78
2023-02-05T10:45:27.730Z,102795.06
2023-02-05T10:48:11.178Z,102793.19
2023-02-05T10:50:50.757Z,102805.66
2023-02-05T10:53:21.775Z,102800.28
2023-02-05T10:55:49.972Z,102795.75
2023-02-05T10:58:39.709Z,102793.84
2023-02-05T11:01:11.351Z,102790.19
2023-02-05T11:03:41.930Z,102756.81
2023-02-05T11:06:12.356Z,102783.56
2023-02-05T11:08:43.830Z,102785.25
2023-02-05T11:11:21.790Z,102787.72
2023-02-05T11:13:54.700Z,102786.78
2023-02-05T11:16:24.045Z,102798.38
2023-02-05T11:19:02.278Z,102797.31
2023-02-05T11:21:48.481Z,102795.59
2023-02-05T11:24:29.145Z,102789.25
2023-02-05T11:27:30.920Z,102785.72
2023-02-05T11:30:01.249Z,102782.22
2023-02-05T11:32:36.327Z,102779.34
2023-02-05T11:35:18.531Z,102786.38
2023-02-05T11:37:48.664Z,102798.94
2023-02-05T11:40:25.814Z,102805.09
2023-02-05T11:43:04.172Z,102804.13
2023-02-05T11:45:33.692Z,102805.00
2023-02-05T11:48:03.961Z,102804.97
2023-02-05T11:50:35.196Z,102810.25
2023-02-05T11:53:16.442Z,102807.56
2023-02-05T11:55:44.975Z,102797.84
2023-02-05T11:58:34.772Z,102787.59
2023-02-05T12:01:07.113Z,102817.38
2023-02-05T12:03:36.280Z,102811.91
2023-02-05T12:06:15.117Z,102805.56
2023-02-05T12:08:48.359Z,102810.91
2023-02-05T12:11:29.772Z,102798.38
2023-02-05T12:14:07.875Z,102802.06
2023-02-05T12:16:50.443Z,102808.19
2023-02-05T12:19:21.524Z,102800.06
2023-02-05T12:21:54.404Z,102791.81
2023-02-05T12:24:48.555Z,102773.03
2023-02-05T12:27:31.199Z,102770.34
2023-02-05T12:30:16.976Z,102779.19
2023-02-05T12:32:58.944Z,102778.22
2023-02-05T12:35:38.806Z,102770.19
2023-02-05T12:38:27.303Z,102777.28
2023-02-05T12:41:16.018Z,102776.38
2023-02-05T12:43:47.930Z,102785.22
2023-02-05T12:46:32.011Z,102793.16
2023-02-05T12:49:21.830Z,102774.63
2023-02-05T12:52:04.742Z,102786.97
2023-02-05T12:54:49.871Z,102781.53
2023-02-05T12:57:21.822Z,102777.91
2023-02-05T12:59:54.115Z,102783.28
2023-02-05T13:02:29.367Z,102784.94
2023-02-05T13:05:06.211Z,102791.09
2023-02-05T13:07:38.042Z,102794.44
2023-02-05T13:10:15.071Z,102788.81
2023-02-05T13:12:47.892Z,102791.34
2023-02-05T13:15:20.142Z,102789.47
2023-02-05T13:17:56.836Z,102793.00
2023-02-05T13:20:44.638Z,102786.78
2023-02-05T13:23:31.714Z,102785.97
2023-02-05T13:26:20.872Z,102780.69
2023-02-05T13:28:55.018Z,102790.53
2023-02-05T13:31:31.338Z,102732.03
2023-02-05T13:34:04.957Z,102791.34
2023-02-05T13:37:17.370Z,102797.56
2023-02-05T13:40:22.432Z,102793.22
2023-02-05T13:43:15.471Z,102799.56
2023-02-05T13:46:10.528Z,102790.84
2023-02-05T13:49:11.938Z,102800.56
2023-02-05T13:52:02.791Z,102802.28
2023-02-05T13:55:04.972Z,102802.38
2023-02-05T13:58:08.887Z,102818.59
2023-02-05T14:00:40.751Z,102826.69
2023-02-05T14:03:10.191Z,102820.25
2023-02-05T14:05:42.551Z,102806.75
2023-02-05T14:08:22.807Z,102811.22
2023-02-05T14:10:59.848Z,102812.97
2023-02-05T14:13:32.555Z,102794.84
2023-02-05T14:16:35.442Z,102805.00
2023-02-05T14:19:16.623Z,102795.59
2023-02-05T14:22:07.316Z,102804.22
2023-02-05T14:24:47.183Z,102778.16
2023-02-05T14:27:37.076Z,102798.91
2023-02-05T14:30:41.388Z,102795.44
2023-02-05T14:33:38.808Z,102784.16
2023-02-05T14:36:33.190Z,102754.63
2023-02-05T14:39:04.296Z,102749.19
2023-02-05T14:41:46.869Z,102757.13
2023-02-05T14:44:20.961Z,102763.25
2023-02-05T14:46:58.527Z,102760.34
2023-02-05T14:49:31.869Z,102754.91
2023-02-05T14:52:02.899Z,102755.84
2023-02-05T14:54:33.635Z,102763.09
2023-02-05T14:57:22.126Z,102785.59
2023-02-05T14:59:54.322Z,102783.91
2023-02-05T15:02:55.725Z,102781.25
2023-02-05T15:05:33.058Z,102767.97
2023-02-05T15:08:10.370Z,102766.06
2023-02-05T15:10:46.884Z,102754.47
2023-02-05T15:13:16.499Z,102752.72
2023-02-05T15:16:25.219Z,102767.88
2023-02-05T15:18:56.175Z,102767.09
2023-02-05T15:21:29.706Z,102760.69
2023-02-05T15:24:02.532Z,102766.94
2023-02-05T15:26:40.799Z,102770.50
2023-02-05T15:29:14.547Z,102774.13
2023-02-05T15:31:47.162Z,102768.03
2023-02-05T15:34:40.905Z,102772.53
2023-02-05T15:37:20.595Z,102776.16
2023-02-05T15:39:53.038Z,102783.41
2023-02-05T15:42:28.153Z,102789.66
2023-02-05T15:44:56.251Z,102791.44
2023-02-05T15:47:27.366Z,102795.72
2023-02-05T15:50:00.865Z,102799.66
2023-02-05T15:52:32.658Z,102800.22
2023-02-05T15:55:09.580Z,102794.06
2023-02-05T15:57:37.748Z,102800.41
2023-02-05T16:00:10.214Z,102793.13
2023-02-05T16:02:40.049Z,102792.34
2023-02-05T16:05:18.876Z,102795.81
2023-02-05T16:07:55.436Z,102816.50
2023-02-05T16:10:26.403Z,102826.41
2023-02-05T16:13:01.855Z,102829.22
2023-02-05T16:15:33.081Z,102821.19
2023-02-05T16:18:05.533Z,102834.56
2023-02-05T16:20:36.827Z,102840.94
2023-02-05T16:23:09.364Z,102833.75
2023-02-05T16:25:43.196Z,102818.59
2023-02-05T16:28:18.116Z,102822.94
2023-02-05T16:30:47.791Z,102814.09
2023-02-05T16:33:27.803Z,102812.34
2023-02-05T16:35:57.732Z,102820.53
2023-02-05T16:38:28.279Z,102831.13
2023-02-05T16:41:00.223Z,102830.06
2023-02-05T16:43:32.545Z,102832.88
2023-02-05T16:46:23.712Z,102833.09
2023-02-05T16:48:53.850Z,102834.13
2023-02-05T16:51:37.429Z,102834.81
2023-02-05T16:57:24.805Z,102831.44
2023-02-05T16:59:55.575Z,102835.78
2023-02-05T17:02:31.758Z,102830.41
2023-02-05T17:05:02.175Z,102837.59
2023-02-05T17:07:31.931Z,102833.91
2023-02-05T17:10:22.428Z,102828.75
2023-02-05T17:12:56.424Z,102826.19
2023-02-05T17:15:36.380Z,102822.69
2023-02-05T17:18:20.640Z,102844.31
2023-02-05T17:20:48.782Z,102844.44
2023-02-05T17:23:17.460Z,102857.88
2023-02-05T17:25:54.587Z,102882.00
2023-02-05T17:28:25.937Z,102863.44
2023-02-05T17:30:57.678Z,102862.50
2023-02-05T17:33:28.379Z,102867.94
2023-02-05T17:35:56.619Z,102877.78
2023-02-05T17:38:24.971Z,102875.03
2023-02-05T17:41:14.403Z,102859.94
2023-02-05T17:43:42.737Z,102860.94
2023-02-05T17:46:13.992Z,102859.94
2023-02-05T17:48:44.523Z,102868.28
2023-02-05T17:51:19.284Z,102875.16
2023-02-05T17:53:47.598Z,102871.69
2023-02-05T17:56:19.237Z,102877.84
2023-02-05T17:58:47.388Z,102895.78
2023-02-05T18:01:15.511Z,102887.78
2023-02-05T18:03:43.681Z,102885.09
2023-02-05T18:06:14.379Z,102882.41
2023-02-05T18:08:42.579Z,102877.13
2023-02-05T18:11:10.985Z,102885.97
2023-02-05T18:13:40.427Z,102890.41
2023-02-05T18:16:11.202Z,102899.31
2023-02-05T18:18:40.292Z,102901.97
2023-02-05T18:21:08.522Z,102905.63
2023-02-05T18:23:36.521Z,102903.75
2023-02-05T18:26:05.990Z,102901.84
2023-02-05T18:28:35.155Z,102909.97
2023-02-05T18:31:06.331Z,102912.66
2023-02-05T18:33:34.462Z,102917.16
2023-02-05T18:36:03.653Z,102918.06
2023-02-05T18:38:32.301Z,102914.56
2023-02-05T18:41:06.128Z,102915.34
2023-02-05T18:43:34.229Z,102885.69
2023-02-05T18:46:07.642Z,102914.47
2023-02-05T18:48:36.030Z,102925.19
2023-02-05T18:51:07.696Z,102933.31
2023-02-05T18:53:38.008Z,102934.38
2023-02-05T18:56:07.905Z,102940.69
2023-02-05T18:58:36.426Z,102943.44
2023-02-05T19:01:10.808Z,102943.44
2023-02-05T19:03:40.760Z,102950.59
2023-02-05T19:06:09.298Z,102947.91
2023-02-05T19:08:37.951Z,102954.16
2023-02-05T19:11:10.854Z,102963.00
2023-02-05T19:13:39.474Z,102961.28
2023-02-05T19:16:11.579Z,102949.56
2023-02-05T19:18:41.571Z,102943.19
2023-02-05T19:21:13.292Z,102944.91
2023-02-05T19:23:43.383Z,102943.19
2023-02-05T19:26:13.867Z,102941.41
2023-02-05T19:28:43.018Z,102945.91
2023-02-05T19:31:14.114Z,102952.16
2023-02-05T19:33:44.136Z,102950.34
2023-02-05T19:36:12.450Z,102957.53
2023-02-05T19:38:41.819Z,102952.16
2023-02-05T19:41:12.636Z,102954.78
2023-02-05T19:43:40.923Z,102968.19
2023-02-05T19:46:09.301Z,102969.06
2023-02-05T19:48:37.520Z,102975.28
2023-02-05T19:51:08.422Z,102971.56
2023-02-05T19:53:38.983Z,102974.03
2023-02-05T19:56:09.018Z,102976.59
2023-02-05T19:58:38.834Z,102976.47
2023-02-05T20:01:12.565Z,102977.00
2023-02-05T20:03:41.596Z,102985.59
2023-02-05T20:06:11.559Z,102974.50
2023-02-05T20:08:39.736Z,102975.22
2023-02-05T20:11:07.890Z,102979.66
2023-02-05T20:13:37.459Z,102977.81
2023-02-05T20:16:08.084Z,102988.50
2023-02-05T20:18:36.247Z,102992.13
2023-02-05T20:21:07.227Z,102985.88
2023-02-05T20:23:36.621Z,103001.06
2023-02-05T20:26:07.363Z,103006.44
2023-02-05T20:28:56.978Z,102996.47
2023-02-05T20:31:33.767Z,102987.63
2023-02-05T20:34:02.925Z,102989.22
2023-02-05T20:36:31.993Z,102996.59
2023-02-05T20:39:03.578Z,103003.38
2023-02-05T20:41:31.779Z,103002.97
2023-02-05T20:43:59.750Z,103000.66
2023-02-05T20:46:28.003Z,102987.31
2023-02-05T20:48:56.131Z,102979.56
2023-02-05T20:51:24.759Z,103005.09
2023-02-05T20:53:52.846Z,103011.56
2023-02-05T20:56:22.226Z,103012.63
2023-02-05T20:58:50.295Z,103018.19
2023-02-05T21:01:20.664Z,103010.38
2023-02-05T21:03:51.051Z,103011.34
2023-02-05T21:06:20.713Z,103005.19
2023-02-05T21:08:50.459Z,102996.41
2023-02-05T21:11:20.091Z,102997.38
2023-02-05T21:13:50.808Z,102998.34
2023-02-05T21:16:21.191Z,102999.34
2023-02-05T21:18:50.509Z,103003.88
2023-02-05T21:21:20.780Z,102997.53
2023-02-05T21:23:49.141Z,103013.38
2023-02-05T21:26:21.772Z,103001.81
2023-02-05T21:28:53.480Z,103001.72
2023-02-05T21:31:21.937Z,102996.56
2023-02-05T21:33:49.973Z,102972.16
2023-02-05T21:36:19.214Z,103008.97
2023-02-05T21:38:47.567Z,103010.78
2023-02-05T21:41:17.028Z,103015.31
2023-02-05T21:43:48.583Z,103020.66
2023-02-05T21:46:18.083Z,103012.84
2023-02-05T21:48:50.467Z,103020.81
2023-02-05T21:51:20.806Z,103023.66
2023-02-05T21:53:52.038Z,103032.75
2023-02-05T21:56:20.206Z,103030.97
2023-02-05T21:58:48.226Z,103025.78
2023-02-05T22:01:19.437Z,103032.84
2023-02-05T22:03:49.769Z,103032.94
2023-02-05T22:06:17.770Z,103025.00
2023-02-05T22:08:48.168Z,102964.88
2023-02-05T22:11:16.580Z,103022.41
2023-02-05T22:13:46.327Z,103026.75
2023-02-05T22:16:16.351Z,103023.22
2023-02-05T22:18:45.967Z,103027.75
2023-02-05T22:21:16.506Z,103010.41
2023-02-05T22:23:48.843Z,103040.31
2023-02-05T22:26:18.110Z,103040.41
2023-02-05T22:28:46.997Z,103050.19
2023-02-05T22:31:16.745Z,103039.47
2023-02-05T22:33:48.396Z,103045.75
2023-02-05T22:36:18.212Z,103044.06
2023-02-05T22:38:46.343Z,103042.31
2023-02-05T22:41:16.104Z,103039.59
2023-02-05T22:43:44.187Z,103054.84
2023-02-05T22:46:14.427Z,103049.44
2023-02-05T22:48:43.939Z,103045.09
2023-02-05T22:51:15.394Z,103046.88
2023-02-05T22:53:43.597Z,103055.00
2023-02-05T22:56:14.117Z,103060.25
2023-02-05T22:58:45.249Z,103058.56
2023-02-05T23:01:15.745Z,103039.44
2023-02-05T23:03:43.752Z,103047.97
2023-02-05T23:06:15.375Z,103056.88
2023-02-05T23:08:44.070Z,103053.34
2023-02-05T23:11:14.568Z,103061.34
2023-02-05T23:13:43.337Z,103058.75
2023-02-05T23:16:13.717Z,103070.38
2023-02-05T23:18:42.862Z,103061.47
2023-02-05T23:21:12.252Z,103068.69
2023-02-05T23:23:42.862Z,103073.19
2023-02-05T23:26:12.650Z,103076.81
2023-02-05T23:28:40.866Z,103069.72
2023-02-05T23:31:09.064Z,103069.78
2023-02-05T23:33:37.598Z,103051.34
2023-02-05T23:36:07.482Z,103062.59
2023-02-05T23:38:35.808Z,103051.03
2023-02-05T23:41:06.073Z,103033.31
2023-02-05T23:43:36.060Z,103042.03
2023-02-05T23:46:04.787Z,103036.75
2023-02-05T23:48:32.826Z,103031.38
2023-02-05T23:51:01.227Z,103029.63
2023-02-05T23:53:29.257Z,103035.94
2023-02-05T23:55:57.304Z,103035.88
2023-02-05T23:58:27.992Z,103041.22
